createdAt,value
2023-02-03T00:00:31.899Z,2.77
2023-02-03T00:04:34.910Z,2.50
2023-02-03T00:08:38.389Z,2.20
2023-02-03T00:12:42.614Z,2.67
2023-02-03T00:16:45.398Z,2.47
2023-02-03T00:20:48.080Z,2.57
2023-02-03T00:24:50.849Z,2.40
2023-02-03T00:28:55.388Z,2.37
2023-02-03T00:32:58.379Z,2.40
2023-02-03T00:37:01.378Z,2.60
2023-02-03T00:41:04.056Z,2.40
2023-02-03T00:45:12.239Z,2.57
2023-02-03T00:49:15.184Z,2.60
2023-02-03T00:53:18.008Z,2.57
2023-02-03T00:57:20.984Z,2.47
2023-02-03T01:01:25.512Z,2.67
2023-02-03T01:05:28.295Z,2.80
2023-02-03T01:09:34.911Z,2.93
2023-02-03T01:13:38.024Z,3.33
2023-02-03T01:17:42.454Z,2.83
2023-02-03T01:21:45.796Z,3.27
2023-02-03T01:25:48.500Z,3.33
2023-02-03T01:29:51.298Z,3.43
2023-02-03T01:33:56.250Z,3.30
2023-02-03T01:37:59.562Z,3.50
2023-02-03T01:42:02.253Z,3.70
2023-02-03T01:46:07.856Z,3.60
2023-02-03T01:50:15.487Z,3.90
2023-02-03T01:54:21.885Z,3.50
2023-02-03T01:58:26.774Z,3.43
2023-02-03T02:02:30.568Z,3.73
2023-02-03T02:06:35.779Z,3.53
2023-02-03T02:10:38.538Z,3.80
2023-02-03T02:14:42.497Z,4.10
2023-02-03T02:18:52.656Z,4.10
2023-02-03T02:23:11.196Z,4.00
2023-02-03T02:27:26.691Z,3.70
2023-02-03T02:31:51.916Z,3.67
2023-02-03T02:35:59.305Z,3.80
2023-02-03T02:40:10.825Z,3.60
2023-02-03T02:44:17.810Z,3.93
2023-02-03T02:48:28.237Z,4.07
2023-02-03T02:52:33.836Z,3.63
2023-02-03T02:56:37.891Z,4.37
2023-02-03T03:00:41.821Z,3.73
2023-02-03T03:04:48.293Z,3.90
2023-02-03T03:08:55.448Z,3.20
2023-02-03T03:13:02.090Z,3.50
2023-02-03T03:17:07.632Z,3.20
2023-02-03T03:21:15.455Z,3.10
2023-02-03T03:25:20.636Z,2.80
2023-02-03T03:29:26.707Z,3.10
2023-02-03T03:33:29.562Z,2.80
2023-02-03T03:37:37.351Z,2.67
2023-02-03T03:41:43.936Z,2.80
2023-02-03T03:45:49.999Z,2.60
2023-02-03T03:49:53.685Z,2.30
2023-02-03T03:54:01.179Z,2.47
2023-02-03T03:58:06.181Z,2.50
2023-02-03T04:02:09.248Z,2.60
2023-02-03T04:06:12.892Z,2.50
2023-02-03T04:10:20.436Z,2.63
2023-02-03T04:14:23.182Z,2.80
2023-02-03T04:18:26.487Z,2.67
2023-02-03T04:22:29.136Z,2.70
2023-02-03T04:26:33.315Z,2.37
2023-02-03T04:30:36.675Z,2.50
2023-02-03T04:34:39.422Z,2.10
2023-02-03T04:38:42.124Z,2.10
2023-02-03T04:42:46.457Z,2.30
2023-02-03T04:46:49.204Z,2.43
2023-02-03T04:50:52.221Z,2.40
2023-02-03T04:54:55.269Z,1.80
2023-02-03T04:58:59.306Z,1.90
2023-02-03T05:03:02.106Z,1.60
2023-02-03T05:07:05.085Z,1.63
2023-02-03T05:11:07.906Z,1.60
2023-02-03T05:15:12.289Z,1.33
2023-02-03T05:19:15.540Z,1.30
2023-02-03T05:23:18.280Z,1.30
2023-02-03T05:27:21.029Z,1.20
2023-02-03T05:31:25.482Z,1.03
2023-02-03T05:35:28.324Z,1.20
2023-02-03T05:39:31.153Z,1.20
2023-02-03T05:43:34.158Z,0.90
2023-02-03T05:47:38.241Z,1.30
2023-02-03T05:51:41.667Z,1.20
2023-02-03T05:55:44.459Z,1.03
2023-02-03T05:59:47.156Z,1.20
2023-02-03T06:03:51.570Z,0.77
2023-02-03T06:07:54.380Z,0.80
2023-02-03T06:11:57.133Z,0.60
2023-02-03T06:16:00.034Z,0.70
2023-02-03T06:20:04.304Z,0.73
2023-02-03T06:24:07.716Z,0.60
2023-02-03T06:28:10.588Z,0.57
2023-02-03T06:32:13.388Z,0.67
2023-02-03T06:36:17.512Z,0.70
2023-02-03T06:40:20.599Z,0.90
2023-02-03T06:44:23.723Z,0.80
2023-02-03T06:48:26.521Z,0.80
2023-02-03T06:52:30.897Z,0.77
2023-02-03T06:56:33.695Z,0.80
2023-02-03T07:00:36.810Z,0.80
2023-02-03T07:04:39.931Z,1.10
2023-02-03T07:08:44.127Z,0.80
2023-02-03T07:12:46.943Z,0.90
2023-02-03T07:16:49.692Z,0.80
2023-02-03T07:20:52.419Z,0.97
2023-02-03T07:24:56.739Z,1.33
2023-02-03T07:29:00.745Z,1.10
2023-02-03T07:33:04.096Z,1.00
2023-02-03T07:37:06.841Z,1.07
2023-02-03T07:41:11.225Z,1.13
2023-02-03T07:45:15.474Z,1.27
2023-02-03T07:49:18.145Z,1.37
2023-02-03T07:53:20.873Z,1.37
2023-02-03T07:57:25.311Z,1.37
2023-02-03T08:01:28.448Z,1.50
2023-02-03T08:05:31.334Z,1.10
2023-02-03T08:09:34.099Z,1.30
2023-02-03T08:13:38.271Z,1.20
2023-02-03T08:17:41.973Z,1.23
2023-02-03T08:21:44.854Z,1.50
2023-02-03T08:25:51.984Z,1.40
2023-02-03T08:29:56.106Z,1.20
2023-02-03T08:33:59.215Z,1.07
2023-02-03T08:38:01.894Z,1.10
2023-02-03T08:42:04.946Z,1.10
2023-02-03T08:46:10.386Z,1.40
2023-02-03T08:50:13.591Z,1.33
2023-02-03T08:54:16.527Z,1.60
2023-02-03T08:58:19.287Z,1.50
2023-02-03T09:02:23.486Z,1.60
2023-02-03T09:06:26.359Z,1.33
2023-02-03T09:10:29.574Z,1.17
2023-02-03T09:14:33.570Z,1.60
2023-02-03T09:18:37.949Z,1.40
2023-02-03T09:22:40.711Z,1.37
2023-02-03T09:26:43.613Z,1.40
2023-02-03T09:30:47.618Z,1.37
2023-02-03T09:34:51.744Z,2.27
2023-02-03T09:38:54.731Z,1.40
2023-02-03T09:43:05.622Z,1.60
2023-02-03T09:47:12.846Z,1.50
2023-02-03T09:51:21.771Z,1.50
2023-02-03T09:55:31.881Z,1.30
2023-02-03T09:59:36.421Z,1.87
2023-02-03T10:03:44.615Z,1.80
2023-02-03T10:07:57.923Z,1.50
2023-02-03T10:12:17.496Z,1.53
2023-02-03T10:16:29.498Z,1.40
2023-02-03T10:20:36.825Z,1.40
2023-02-03T10:24:45.278Z,1.27
2023-02-03T10:28:54.946Z,1.40
2023-02-03T10:33:01.933Z,1.10
2023-02-03T10:37:11.278Z,1.20
2023-02-03T10:41:16.008Z,1.33
2023-02-03T10:45:19.089Z,1.10
2023-02-03T10:49:22.478Z,1.10
2023-02-03T10:53:27.257Z,1.30
2023-02-03T10:57:31.501Z,1.00
2023-02-03T11:01:42.384Z,1.20
2023-02-03T11:05:45.172Z,1.20
2023-02-03T11:09:47.938Z,1.20
2023-02-03T11:13:56.190Z,1.10
2023-02-03T11:17:58.889Z,1.10
2023-02-03T11:22:01.793Z,1.50
2023-02-03T11:26:15.208Z,2.07
2023-02-03T11:30:23.833Z,1.93
2023-02-03T11:34:29.436Z,1.30
2023-02-03T11:38:36.563Z,2.30
2023-02-03T11:42:41.607Z,1.60
2023-02-03T11:46:56.228Z,1.10
2023-02-03T11:51:05.285Z,1.30
2023-02-03T11:55:17.317Z,1.30
2023-02-03T11:59:36.748Z,1.03
2023-02-03T12:04:11.854Z,1.60
2023-02-03T12:08:29.201Z,1.20
2023-02-03T12:12:46.927Z,1.13
2023-02-03T12:17:13.231Z,1.20
2023-02-03T12:21:34.392Z,1.23
2023-02-03T12:25:47.632Z,1.10
2023-02-03T12:29:53.153Z,1.23
2023-02-03T12:34:02.618Z,1.10
2023-02-03T12:38:08.935Z,0.90
2023-02-03T12:42:18.501Z,1.17
2023-02-03T12:46:24.716Z,1.00
2023-02-03T12:50:31.290Z,1.00
2023-02-03T12:54:38.911Z,1.10
2023-02-03T12:58:47.194Z,0.80
2023-02-03T13:03:00.690Z,1.20
2023-02-03T13:07:09.894Z,1.20
2023-02-03T13:11:21.300Z,1.10
2023-02-03T13:15:28.655Z,1.10
2023-02-03T13:19:39.871Z,1.10
2023-02-03T13:23:44.615Z,1.30
2023-02-03T13:27:50.396Z,0.83
2023-02-03T13:32:02.780Z,0.80
2023-02-03T13:36:14.708Z,1.10
2023-02-03T13:40:30.158Z,1.17
2023-02-03T13:44:33.193Z,0.80
2023-02-03T13:48:38.397Z,0.80
2023-02-03T13:52:47.199Z,0.90
2023-02-03T13:56:56.144Z,1.50
2023-02-03T14:01:03.256Z,1.20
2023-02-03T14:05:11.311Z,0.70
2023-02-03T14:09:21.373Z,1.00
2023-02-03T14:13:24.151Z,1.30
2023-02-03T14:18:03.559Z,0.77
2023-02-03T14:22:09.778Z,0.90
2023-02-03T14:26:22.382Z,0.70
2023-02-03T14:30:25.261Z,0.50
2023-02-03T14:34:32.935Z,0.60
2023-02-03T14:38:37.098Z,0.83
2023-02-03T14:43:19.192Z,0.63
2023-02-03T14:47:28.443Z,0.60
2023-02-03T14:51:47.117Z,0.80
2023-02-03T14:56:00.392Z,0.60
2023-02-03T15:00:05.748Z,0.50
2023-02-03T15:04:25.336Z,0.60
2023-02-03T15:08:33.296Z,0.40
2023-02-03T15:12:38.922Z,0.50
2023-02-03T15:16:42.668Z,0.80
2023-02-03T15:20:48.211Z,0.93
2023-02-03T15:24:52.590Z,1.37
2023-02-03T15:28:58.080Z,1.00
2023-02-03T15:33:05.433Z,1.00
2023-02-03T15:37:10.955Z,0.90
2023-02-03T15:41:19.102Z,1.00
2023-02-03T15:45:28.128Z,1.10
2023-02-03T15:49:32.706Z,1.13
2023-02-03T15:53:47.558Z,0.90
2023-02-03T15:57:51.472Z,1.00
2023-02-03T16:01:55.749Z,1.20
2023-02-03T16:06:00.236Z,1.10
2023-02-03T16:10:03.371Z,1.03
2023-02-03T16:14:07.887Z,1.10
2023-02-03T16:18:17.657Z,1.10
2023-02-03T16:22:31.627Z,0.80
2023-02-03T16:26:36.602Z,1.50
2023-02-03T16:30:57.080Z,1.77
2023-02-03T16:35:18.911Z,1.60
2023-02-03T16:39:39.061Z,2.30
2023-02-03T16:43:59.416Z,1.37
2023-02-03T16:48:19.768Z,3.40
2023-02-03T16:52:23.916Z,1.90
2023-02-03T16:56:26.664Z,1.07
2023-02-03T17:00:29.546Z,0.80
2023-02-03T17:04:32.333Z,0.90
2023-02-03T17:08:37.393Z,2.10
2023-02-03T17:12:40.551Z,1.30
2023-02-03T17:16:43.332Z,1.10
2023-02-03T17:20:47.119Z,1.10
2023-02-03T17:24:51.191Z,1.00
2023-02-03T17:28:54.068Z,1.20
2023-02-03T17:32:59.092Z,1.10
2023-02-03T17:37:02.071Z,0.93
2023-02-03T17:54:13.139Z,1.03
2023-02-03T17:58:17.427Z,1.10
2023-02-03T18:02:20.224Z,0.90
2023-02-03T18:06:23.929Z,1.03
2023-02-03T18:10:26.703Z,1.00
2023-02-03T18:14:31.382Z,1.27
2023-02-03T18:18:35.608Z,0.90
2023-02-03T18:22:38.323Z,1.00
2023-02-03T18:26:47.960Z,1.17
2023-02-03T18:30:52.314Z,1.50
2023-02-03T18:34:55.059Z,1.37
2023-02-03T18:38:57.904Z,1.50
2023-02-03T18:43:01.059Z,1.27
2023-02-03T18:47:07.653Z,1.70
2023-02-03T18:51:10.965Z,1.40
2023-02-03T18:55:13.840Z,1.40
2023-02-03T18:59:16.899Z,1.50
2023-02-03T19:03:21.287Z,1.50
2023-02-03T19:07:24.395Z,1.70
2023-02-03T19:11:27.231Z,1.83
2023-02-03T19:15:30.303Z,1.83
2023-02-03T19:19:34.514Z,4.00
2023-02-03T19:23:37.469Z,1.67
2023-02-03T19:27:40.538Z,1.43
2023-02-03T19:31:43.321Z,1.40
2023-02-03T19:35:50.130Z,1.47
2023-02-03T19:39:53.162Z,1.43
2023-02-03T19:43:56.160Z,1.50
2023-02-03T19:47:58.826Z,1.63
2023-02-03T19:52:03.092Z,1.70
2023-02-03T19:56:06.419Z,2.07
2023-02-03T20:00:10.800Z,1.80
2023-02-03T20:04:13.533Z,2.40
2023-02-03T20:08:17.657Z,1.87
2023-02-03T20:12:20.552Z,2.40
2023-02-03T20:16:23.330Z,2.20
2023-02-03T20:20:26.167Z,3.40
2023-02-03T20:24:31.453Z,2.90
2023-02-03T20:28:34.251Z,2.43
2023-02-03T20:32:37.332Z,2.30
2023-02-03T20:36:40.174Z,1.70
2023-02-03T20:40:46.179Z,2.00
2023-02-03T20:44:49.272Z,2.47
2023-02-03T20:48:52.005Z,2.10
2023-02-03T20:52:54.774Z,2.10
2023-02-03T20:56:58.892Z,2.10
2023-02-03T21:01:03.737Z,2.20
2023-02-03T21:05:24.315Z,2.27
2023-02-03T21:09:27.862Z,2.30
2023-02-03T21:13:35.880Z,2.60
2023-02-03T21:17:38.908Z,2.30
2023-02-03T21:21:42.804Z,2.70
2023-02-03T21:25:45.816Z,2.87
2023-02-03T21:29:51.738Z,2.60
2023-02-03T21:33:55.225Z,2.40
2023-02-03T21:38:01.954Z,2.33
2023-02-03T21:42:40.700Z,2.60
2023-02-03T21:46:45.254Z,3.00
2023-02-03T21:50:48.184Z,2.60
2023-02-03T21:54:50.983Z,2.70
2023-02-03T21:58:57.385Z,2.47
2023-02-03T22:03:02.310Z,2.70
2023-02-03T22:07:15.273Z,2.70
2023-02-03T22:11:19.884Z,2.50
2023-02-03T22:15:22.688Z,2.73
2023-02-03T22:19:26.914Z,2.80
2023-02-03T22:23:29.714Z,2.87
2023-02-03T22:27:32.640Z,2.97
2023-02-03T22:31:35.529Z,3.00
2023-02-03T22:35:39.945Z,2.80
2023-02-03T22:39:42.657Z,3.03
2023-02-03T22:43:45.653Z,3.00
2023-02-03T22:47:49.001Z,2.47
2023-02-03T22:51:53.275Z,3.00
2023-02-03T22:55:56.226Z,2.57
2023-02-03T22:59:59.008Z,2.40
2023-02-03T23:04:01.759Z,3.43
2023-02-03T23:08:06.214Z,2.87
2023-02-03T23:12:09.532Z,2.60
2023-02-03T23:16:12.361Z,2.37
2023-02-03T23:20:16.613Z,2.60
2023-02-03T23:24:20.765Z,2.83
2023-02-03T23:28:24.046Z,2.27
2023-02-03T23:32:26.820Z,2.60
2023-02-03T23:36:29.792Z,2.60
2023-02-03T23:40:34.146Z,2.67
2023-02-03T23:44:36.877Z,2.53
2023-02-03T23:48:39.811Z,2.63
2023-02-03T23:52:42.797Z,2.67
2023-02-03T23:56:46.899Z,2.87
